Csl Argosy — C6UZ9 — position and weather

sailwx.info

Track history (hours):
 
Tides and Currents Weather Stations Pressure Air Temp Water Temp Dewpoint Dewpoint Depression Visibility Wind Speed Wind Dir Waves Ship Positions

Csl Argosy

Last reported at 2017-Apr-20 16:38 UTC. Time now 2017-May-01 06:12 UTC.
Position N 27°36' W 082°44'.
Warning: this ship's position is 10 days out of date.

; draft 8.7 m.

Type: Cargo ship. MMSI: 308299000.

Date/timePositionNaut miles runAvg speedWind from/ knotsBaromVisibWave heightAir tempDewpointWater temp
2017-Apr-20 16:38N 27°36' W 082°44'211.6
2017-Apr-20 16:29N 27°37' W 082°42'810.7
2017-Apr-20 15:47N 27°41' W 082°35'310.8
2017-Apr-20 15:30N 27°43' W 082°33'510.2
2017-Apr-20 15:00N 27°47' W 082°30'5 9.8
2017-Apr-20 14:30N 27°51' W 082°27'3 3.1
2017-Apr-20 13:28N 27°54' W 082°26'0 0.0
2017-Apr-20 12:58N 27°54' W 082°26'0 0.0
2017-Apr-20 12:28N 27°54' W 082°26'0 0.0
2017-Apr-20 11:58N 27°54' W 082°26'0 0.0
2017-Apr-20 11:28N 27°54' W 082°26'0 0.0
2017-Apr-20 10:58N 27°54' W 082°26'0 0.0
2017-Apr-20 10:28N 27°54' W 082°26'0 0.0
2017-Apr-20 09:58N 27°54' W 082°26'0 0.0
2017-Apr-20 09:28N 27°54' W 082°26'0 0.0
2017-Apr-20 08:58N 27°54' W 082°26'0 0.0
2017-Apr-20 08:28N 27°54' W 082°26'0 0.0
2017-Apr-20 07:58N 27°54' W 082°26'0 0.0
2017-Apr-20 07:28N 27°54' W 082°26'0 0.0
2017-Apr-20 06:58N 27°54' W 082°26'0 0.0
2017-Apr-20 06:28N 27°54' W 082°26'0 0.0
2017-Apr-20 05:58N 27°54' W 082°26'0 0.0
2017-Apr-20 05:28N 27°54' W 082°26'0 0.0
2017-Apr-20 04:58N 27°54' W 082°26'0 0.0
2017-Apr-20 04:28N 27°54' W 082°26'0 0.0
2017-Apr-20 03:58N 27°54' W 082°26'0 0.0
2017-Apr-20 03:28N 27°54' W 082°26'0 0.0
2017-Apr-20 02:58N 27°54' W 082°26'0 0.0
2017-Apr-20 02:28N 27°54' W 082°26'0 0.0
2017-Apr-20 01:55N 27°54' W 082°26'0 0.0
2017-Apr-20 01:28N 27°54' W 082°26'0 0.0
2017-Apr-20 00:58N 27°54' W 082°26'0 0.0
2017-Apr-20 00:28N 27°54' W 082°26'0 0.0
2017-Apr-19 23:58N 27°54' W 082°26'0 0.0
2017-Apr-19 23:28N 27°54' W 082°26'0 0.0
2017-Apr-19 22:58N 27°54' W 082°26'0 0.0
2017-Apr-19 22:28N 27°54' W 082°26'0 0.0
2017-Apr-19 21:58N 27°54' W 082°26'0 0.0
2017-Apr-19 21:28N 27°54' W 082°26'0 0.0
2017-Apr-19 20:58N 27°54' W 082°26'0 0.0
2017-Apr-19 20:28N 27°54' W 082°26'0 0.0
2017-Apr-19 19:58N 27°54' W 082°26'0 0.0
2017-Apr-19 19:28N 27°54' W 082°26'0 0.0
2017-Apr-19 18:58N 27°54' W 082°26'0 0.0
2017-Apr-19 18:28N 27°54' W 082°26'0 0.0
2017-Apr-19 17:58N 27°54' W 082°26'0 0.0
2017-Apr-19 17:28N 27°54' W 082°26'0 0.0
2017-Apr-19 16:58N 27°54' W 082°26'0 0.0
2017-Apr-19 16:28N 27°54' W 082°26'0 0.0
2017-Apr-19 15:58N 27°54' W 082°26'0 0.0
2017-Apr-19 15:28N 27°54' W 082°26'0 0.1
2017-Apr-19 15:00N 27°54' W 082°26'0 0.2
2017-Apr-19 14:30N 27°54' W 082°26'6 6.3
2017-Apr-19 13:30N 27°48' W 082°28'4 8.4
2017-Apr-19 13:00N 27°45' W 082°31'5 9.6
2017-Apr-19 12:30N 27°41' W 082°34'5 9.7
2017-Apr-19 12:00N 27°38' W 082°38'  
2017-Apr-17 06:10N 20°37' W 086°60'8 0.5
2017-Apr-16 12:25N 20°34' W 087°07'2 3.5
2017-Apr-16 11:58N 20°35' W 087°06'2 4.4
2017-Apr-16 11:25N 20°36' W 087°04'2 4.9
2017-Apr-16 11:00N 20°37' W 087°02'  
Track history (hours):
 
Tides and Currents Weather Stations Pressure Air Temp Water Temp Dewpoint Dewpoint Depression Visibility Wind Speed Wind Dir Waves Ship Positions

Csl Argosy

Last reported at 2017-Apr-20 16:38 UTC. Time now 2017-May-01 06:12 UTC.
Position N 27°36' W 082°44'.
Warning: this ship's position is 10 days out of date.

; draft 8.7 m.

Type: Cargo ship. MMSI: 308299000.

Date/timePositionNaut miles runAvg speedWind from/ knotsBaromVisibWave heightAir tempDewpointWater temp
2017-Apr-20 16:38N 27°36' W 082°44'211.6
2017-Apr-20 16:29N 27°37' W 082°42'810.7
2017-Apr-20 15:47N 27°41' W 082°35'310.8
2017-Apr-20 15:30N 27°43' W 082°33'510.2
2017-Apr-20 15:00N 27°47' W 082°30'5 9.8
2017-Apr-20 14:30N 27°51' W 082°27'3 3.1
2017-Apr-20 13:28N 27°54' W 082°26'0 0.0
2017-Apr-20 12:58N 27°54' W 082°26'0 0.0
2017-Apr-20 12:28N 27°54' W 082°26'0 0.0
2017-Apr-20 11:58N 27°54' W 082°26'0 0.0
2017-Apr-20 11:28N 27°54' W 082°26'0 0.0
2017-Apr-20 10:58N 27°54' W 082°26'0 0.0
2017-Apr-20 10:28N 27°54' W 082°26'0 0.0
2017-Apr-20 09:58N 27°54' W 082°26'0 0.0
2017-Apr-20 09:28N 27°54' W 082°26'0 0.0
2017-Apr-20 08:58N 27°54' W 082°26'0 0.0
2017-Apr-20 08:28N 27°54' W 082°26'0 0.0
2017-Apr-20 07:58N 27°54' W 082°26'0 0.0
2017-Apr-20 07:28N 27°54' W 082°26'0 0.0
2017-Apr-20 06:58N 27°54' W 082°26'0 0.0
2017-Apr-20 06:28N 27°54' W 082°26'0 0.0
2017-Apr-20 05:58N 27°54' W 082°26'0 0.0
2017-Apr-20 05:28N 27°54' W 082°26'0 0.0
2017-Apr-20 04:58N 27°54' W 082°26'0 0.0
2017-Apr-20 04:28N 27°54' W 082°26'0 0.0
2017-Apr-20 03:58N 27°54' W 082°26'0 0.0
2017-Apr-20 03:28N 27°54' W 082°26'0 0.0
2017-Apr-20 02:58N 27°54' W 082°26'0 0.0
2017-Apr-20 02:28N 27°54' W 082°26'0 0.0
2017-Apr-20 01:55N 27°54' W 082°26'0 0.0
2017-Apr-20 01:28N 27°54' W 082°26'0 0.0
2017-Apr-20 00:58N 27°54' W 082°26'0 0.0
2017-Apr-20 00:28N 27°54' W 082°26'0 0.0
2017-Apr-19 23:58N 27°54' W 082°26'0 0.0
2017-Apr-19 23:28N 27°54' W 082°26'0 0.0
2017-Apr-19 22:58N 27°54' W 082°26'0 0.0
2017-Apr-19 22:28N 27°54' W 082°26'0 0.0
2017-Apr-19 21:58N 27°54' W 082°26'0 0.0
2017-Apr-19 21:28N 27°54' W 082°26'0 0.0
2017-Apr-19 20:58N 27°54' W 082°26'0 0.0
2017-Apr-19 20:28N 27°54' W 082°26'0 0.0
2017-Apr-19 19:58N 27°54' W 082°26'0 0.0
2017-Apr-19 19:28N 27°54' W 082°26'0 0.0
2017-Apr-19 18:58N 27°54' W 082°26'0 0.0
2017-Apr-19 18:28N 27°54' W 082°26'0 0.0
2017-Apr-19 17:58N 27°54' W 082°26'0 0.0
2017-Apr-19 17:28N 27°54' W 082°26'0 0.0
2017-Apr-19 16:58N 27°54' W 082°26'0 0.0
2017-Apr-19 16:28N 27°54' W 082°26'0 0.0
2017-Apr-19 15:58N 27°54' W 082°26'0 0.0
2017-Apr-19 15:28N 27°54' W 082°26'0 0.1
2017-Apr-19 15:00N 27°54' W 082°26'0 0.2
2017-Apr-19 14:30N 27°54' W 082°26'6 6.3
2017-Apr-19 13:30N 27°48' W 082°28'4 8.4
2017-Apr-19 13:00N 27°45' W 082°31'5 9.6
2017-Apr-19 12:30N 27°41' W 082°34'5 9.7
2017-Apr-19 12:00N 27°38' W 082°38'  
2017-Apr-17 06:10N 20°37' W 086°60'8 0.5
2017-Apr-16 12:25N 20°34' W 087°07'2 3.5
2017-Apr-16 11:58N 20°35' W 087°06'2 4.4
2017-Apr-16 11:25N 20°36' W 087°04'2 4.9
2017-Apr-16 11:00N 20°37' W 087°02'  

Dump ship's entire track history